createdAt,value
2023-03-25T00:02:48.278Z,6.07
2023-03-25T00:07:52.769Z,4.85
2023-03-25T00:12:54.505Z,5.03
2023-03-25T00:17:56.236Z,3.80
2023-03-25T00:22:57.894Z,4.35
2023-03-25T00:27:59.529Z,5.07
2023-03-25T00:33:01.867Z,4.78
2023-03-25T00:38:07.993Z,3.67
2023-03-25T00:43:10.970Z,4.35
2023-03-25T00:48:12.561Z,4.55
2023-03-25T00:53:14.343Z,4.90
2023-03-25T00:58:15.909Z,4.97
2023-03-25T01:03:18.788Z,3.65
2023-03-25T01:08:25.779Z,4.93
2023-03-25T01:13:27.545Z,5.20
2023-03-25T01:18:29.151Z,4.03
2023-03-25T01:23:30.792Z,4.38
2023-03-25T01:28:32.641Z,5.30
2023-03-25T01:33:34.290Z,5.25
2023-03-25T01:38:37.233Z,4.68
2023-03-25T01:43:38.910Z,5.45
2023-03-25T01:48:43.982Z,5.60
2023-03-25T01:53:46.988Z,4.78
2023-03-25T01:58:51.427Z,5.68
2023-03-25T02:04:02.983Z,5.72
2023-03-25T02:09:06.563Z,5.68
2023-03-25T02:14:11.814Z,5.18
2023-03-25T02:19:19.346Z,5.55
2023-03-25T02:24:24.000Z,4.95
2023-03-25T02:29:49.048Z,5.97
2023-03-25T02:35:13.806Z,5.35
2023-03-25T02:40:20.872Z,5.25
2023-03-25T02:45:29.752Z,6.10
2023-03-25T02:50:38.429Z,6.50
2023-03-25T02:55:41.848Z,6.00
2023-03-25T03:00:44.815Z,6.30
2023-03-25T03:05:51.446Z,6.50
2023-03-25T03:11:22.801Z,6.18
2023-03-25T03:16:40.316Z,7.85
2023-03-25T03:21:51.558Z,5.07
2023-03-25T03:27:05.724Z,6.50
2023-03-25T03:32:07.562Z,6.38
2023-03-25T03:37:17.442Z,6.38
2023-03-25T03:42:22.964Z,6.75
2023-03-25T03:47:28.330Z,7.07
2023-03-25T03:52:49.629Z,6.47
2023-03-25T03:58:02.785Z,6.63
2023-03-25T04:03:18.965Z,7.18
2023-03-25T04:08:34.292Z,6.32
2023-03-25T04:13:40.485Z,6.30
2023-03-25T04:18:43.671Z,6.72
2023-03-25T04:23:46.238Z,7.00
2023-03-25T04:28:47.861Z,7.13
2023-03-25T04:33:50.682Z,6.75
2023-03-25T04:38:53.186Z,6.80
2023-03-25T04:43:55.140Z,6.72
2023-03-25T04:48:57.235Z,5.88
2023-03-25T04:53:59.836Z,6.03
2023-03-25T04:59:01.436Z,6.38
2023-03-25T05:04:05.192Z,6.38
2023-03-25T05:09:09.360Z,5.88
2023-03-25T05:14:13.257Z,5.80
2023-03-25T05:19:16.399Z,5.55
2023-03-25T05:24:18.074Z,4.97
2023-03-25T05:29:19.733Z,4.90
2023-03-25T05:34:21.349Z,5.20
2023-03-25T05:39:23.209Z,5.53
2023-03-25T05:44:26.220Z,4.97
2023-03-25T05:49:28.488Z,4.57
2023-03-25T05:54:30.818Z,4.72
2023-03-25T05:59:33.375Z,4.95
2023-03-25T06:04:41.241Z,6.63
2023-03-25T06:09:46.185Z,5.93
2023-03-25T06:14:48.516Z,5.72
2023-03-25T06:19:53.880Z,5.38
2023-03-25T06:24:55.581Z,4.50
2023-03-25T06:29:57.297Z,4.72
2023-03-25T06:34:58.939Z,5.20
2023-03-25T06:40:00.614Z,5.07
2023-03-25T06:45:05.217Z,5.72
2023-03-25T06:50:19.289Z,5.45
2023-03-25T06:55:20.978Z,4.43
2023-03-25T07:00:24.770Z,4.63
2023-03-25T07:05:26.579Z,4.95
2023-03-25T07:10:28.322Z,5.07
2023-03-25T07:15:31.296Z,4.75
2023-03-25T07:20:33.090Z,4.55
2023-03-25T07:25:34.754Z,5.05
2023-03-25T07:30:36.486Z,5.28
2023-03-25T07:35:38.533Z,5.15
2023-03-25T07:40:40.321Z,4.97
2023-03-25T07:45:44.034Z,3.47
2023-03-25T07:50:46.401Z,3.72
2023-03-25T07:55:50.945Z,4.10
2023-03-25T08:00:52.877Z,4.13
2023-03-25T08:05:54.691Z,4.50
2023-03-25T08:10:56.880Z,5.05
2023-03-25T08:15:58.800Z,4.18
2023-03-25T08:21:00.447Z,4.45
2023-03-25T08:26:02.886Z,3.10
2023-03-25T08:31:08.739Z,4.32
2023-03-25T08:36:14.502Z,4.22
2023-03-25T08:41:16.838Z,4.55
2023-03-25T08:46:18.596Z,3.88
2023-03-25T08:51:20.371Z,4.82
2023-03-25T08:56:22.162Z,3.83
2023-03-25T09:01:24.388Z,4.07
2023-03-25T09:06:26.222Z,4.28
2023-03-25T09:11:36.635Z,4.40
2023-03-25T09:16:38.782Z,6.22
2023-03-25T09:21:40.584Z,4.68
2023-03-25T09:26:42.243Z,4.03
2023-03-25T09:31:43.990Z,3.53
2023-03-25T09:36:45.932Z,3.55
2023-03-25T09:41:59.585Z,3.65
2023-03-25T09:47:03.172Z,4.57
2023-03-25T09:52:08.198Z,4.60
2023-03-25T09:57:17.565Z,4.45
2023-03-25T10:02:44.309Z,5.55
2023-03-25T10:07:53.110Z,5.15
2023-03-25T10:13:40.912Z,5.97
2023-03-25T10:19:27.093Z,5.30
2023-03-25T10:24:38.212Z,4.88
2023-03-25T10:30:10.271Z,5.38
2023-03-25T10:35:34.544Z,5.65
2023-03-25T10:40:44.827Z,4.85
2023-03-25T10:45:48.320Z,4.95
2023-03-25T10:50:53.577Z,4.45
2023-03-25T10:56:03.669Z,5.72
2023-03-25T11:01:14.318Z,5.22
2023-03-25T11:06:26.756Z,4.85
2023-03-25T11:11:36.688Z,5.43
2023-03-25T11:16:52.705Z,5.57
2023-03-25T11:22:01.710Z,6.13
2023-03-25T11:27:07.274Z,5.50
2023-03-25T11:32:15.137Z,4.82
2023-03-25T11:37:20.380Z,4.18
2023-03-25T11:42:43.001Z,5.43
2023-03-25T11:47:47.025Z,5.50
2023-03-25T11:52:53.461Z,5.50
2023-03-25T11:57:58.784Z,4.97
2023-03-25T12:03:23.226Z,6.30
2023-03-25T12:08:24.981Z,4.75
2023-03-25T12:13:45.021Z,5.35
2023-03-25T12:19:05.731Z,4.53
2023-03-25T12:24:28.332Z,5.68
2023-03-25T12:29:38.409Z,5.32
2023-03-25T12:35:18.127Z,4.28
2023-03-25T12:40:59.005Z,5.13
2023-03-25T12:46:21.451Z,4.35
2023-03-25T12:51:26.331Z,4.03
2023-03-25T12:56:57.194Z,4.03
2023-03-25T13:02:27.989Z,3.92
2023-03-25T13:07:36.653Z,3.40
2023-03-25T13:12:43.116Z,4.13
2023-03-25T13:17:51.730Z,3.00
2023-03-25T13:22:59.712Z,2.90
2023-03-25T13:28:06.560Z,2.83
2023-03-25T13:33:14.772Z,3.88
2023-03-25T13:38:24.814Z,3.28
2023-03-25T13:43:35.133Z,3.25
2023-03-25T13:48:45.959Z,2.90
2023-03-25T13:53:57.421Z,3.90
2023-03-25T13:59:13.118Z,4.57
2023-03-25T14:04:24.844Z,5.18
2023-03-25T14:09:52.231Z,3.97
2023-03-25T14:15:00.937Z,4.55
2023-03-25T14:20:08.346Z,4.40
2023-03-25T14:25:39.811Z,4.45
2023-03-25T14:30:43.215Z,3.60
2023-03-25T14:35:47.328Z,2.38
2023-03-25T14:41:02.833Z,1.48
2023-03-25T14:46:11.318Z,1.58
2023-03-25T14:51:23.537Z,1.27
2023-03-25T14:56:36.441Z,1.23
2023-03-25T15:01:40.445Z,1.95
2023-03-25T15:06:43.353Z,2.65
2023-03-25T15:11:58.214Z,2.35
2023-03-25T15:17:13.179Z,1.42
2023-03-25T15:22:21.230Z,1.10
2023-03-25T15:27:44.650Z,1.60
2023-03-25T15:32:52.512Z,2.47
2023-03-25T15:38:19.316Z,1.83
2023-03-25T15:44:00.220Z,1.35
2023-03-25T15:49:15.063Z,1.83
2023-03-25T15:54:32.585Z,1.70
2023-03-25T16:00:20.738Z,1.80
2023-03-25T16:05:23.139Z,1.67
2023-03-25T16:10:32.781Z,1.80
2023-03-25T16:15:37.058Z,1.85
2023-03-25T16:20:38.805Z,1.63
2023-03-25T16:25:42.172Z,2.88
2023-03-25T16:30:48.863Z,3.13
2023-03-25T16:36:01.879Z,2.25
2023-03-25T16:41:24.200Z,2.58
2023-03-25T16:46:26.433Z,3.53
2023-03-25T16:51:36.189Z,2.08
2023-03-25T16:56:39.387Z,1.75
2023-03-25T17:01:44.973Z,2.30
2023-03-25T17:06:53.504Z,1.67
2023-03-25T17:11:57.682Z,1.70
2023-03-25T17:17:08.679Z,1.60
2023-03-25T17:22:19.109Z,1.70
2023-03-25T17:27:36.044Z,2.13
2023-03-25T17:32:44.899Z,1.92
2023-03-25T17:37:51.077Z,2.85
2023-03-25T17:42:53.408Z,2.78
2023-03-25T17:47:55.069Z,1.88
2023-03-25T17:52:57.536Z,2.50
2023-03-25T17:57:59.342Z,2.67
2023-03-25T18:03:01.384Z,1.75
2023-03-25T18:08:04.381Z,1.95
2023-03-25T18:13:06.188Z,1.80
2023-03-25T18:18:24.272Z,1.60
2023-03-25T18:23:26.000Z,1.95
2023-03-25T18:28:27.747Z,2.33
2023-03-25T18:33:32.745Z,3.33
2023-03-25T18:38:34.374Z,2.78
2023-03-25T18:43:36.069Z,2.28
2023-03-25T18:48:37.733Z,1.77
2023-03-25T18:53:40.554Z,2.88
2023-03-25T18:58:42.287Z,2.70
2023-03-25T19:03:44.901Z,2.00
2023-03-25T19:08:47.497Z,2.05
2023-03-25T19:13:50.806Z,2.63
2023-03-25T19:18:52.476Z,2.00
2023-03-25T19:23:54.150Z,2.42
2023-03-25T19:28:56.029Z,2.20
2023-03-25T19:33:58.220Z,3.20
2023-03-25T19:39:05.565Z,1.65
2023-03-25T19:44:07.368Z,2.53
2023-03-25T19:49:08.988Z,4.07
2023-03-25T19:54:13.638Z,2.80
2023-03-25T19:59:17.345Z,2.60
2023-03-25T20:04:18.967Z,1.90
2023-03-25T20:09:20.625Z,2.05
2023-03-25T20:14:22.771Z,2.22
2023-03-25T20:19:25.021Z,2.70
2023-03-25T20:24:27.252Z,2.30
2023-03-25T20:29:29.266Z,2.33
2023-03-25T20:34:31.514Z,2.50
2023-03-25T20:39:33.375Z,2.53
2023-03-25T20:44:35.712Z,2.65
2023-03-25T20:49:38.052Z,2.60
2023-03-25T20:54:39.631Z,2.45
2023-03-25T20:59:41.577Z,3.25
2023-03-25T21:04:43.452Z,3.05
2023-03-25T21:09:48.543Z,2.80
2023-03-25T21:14:50.418Z,2.63
2023-03-25T21:19:52.231Z,2.45
2023-03-25T21:24:54.958Z,5.38
2023-03-25T21:29:56.635Z,5.10
2023-03-25T21:34:59.731Z,5.53
2023-03-25T21:40:01.464Z,6.15
2023-03-25T21:45:03.286Z,7.18
2023-03-25T21:50:09.800Z,5.25
2023-03-25T21:55:12.614Z,3.47
2023-03-25T22:00:17.297Z,3.60
2023-03-25T22:05:19.022Z,5.60
2023-03-25T22:10:26.792Z,5.60
2023-03-25T22:15:29.610Z,4.30
2023-03-25T22:20:31.223Z,2.88
2023-03-25T22:25:32.831Z,3.40
2023-03-25T22:30:34.505Z,3.55
2023-03-25T22:35:38.576Z,3.15
2023-03-25T22:40:40.347Z,2.67
2023-03-25T22:45:41.973Z,2.53
2023-03-25T22:50:43.701Z,2.38
2023-03-25T22:55:53.293Z,2.70
2023-03-25T23:00:57.042Z,2.10
2023-03-25T23:06:06.384Z,2.50
2023-03-25T23:11:17.039Z,2.83
2023-03-25T23:16:23.070Z,2.10
2023-03-25T23:21:28.560Z,2.05
2023-03-25T23:26:36.738Z,2.58
2023-03-25T23:31:41.839Z,2.33
2023-03-25T23:36:44.219Z,4.45
2023-03-25T23:41:45.826Z,4.70
2023-03-25T23:46:47.955Z,4.05
2023-03-25T23:51:51.040Z,4.00
2023-03-25T23:56:52.838Z,3.08
